createdAt,value
2023-02-23T00:02:24.157Z,2.90
2023-02-23T00:04:53.224Z,1.98
2023-02-23T00:07:22.432Z,2.67
2023-02-23T00:09:52.988Z,2.38
2023-02-23T00:12:24.068Z,2.78
2023-02-23T00:14:54.478Z,3.03
2023-02-23T00:17:24.516Z,2.50
2023-02-23T00:19:53.548Z,2.25
2023-02-23T00:22:22.854Z,2.30
2023-02-23T00:24:51.904Z,2.17
2023-02-23T00:27:21.202Z,2.05
2023-02-23T00:29:51.113Z,2.13
2023-02-23T00:32:21.794Z,2.90
2023-02-23T00:34:53.560Z,2.30
2023-02-23T00:37:23.659Z,2.40
2023-02-23T00:39:53.006Z,2.92
2023-02-23T00:42:22.171Z,2.20
2023-02-23T00:44:51.598Z,2.20
2023-02-23T00:47:22.107Z,2.50
2023-02-23T00:49:51.737Z,2.08
2023-02-23T00:52:21.520Z,2.70
2023-02-23T00:54:51.565Z,2.78
2023-02-23T00:57:20.724Z,3.00
2023-02-23T00:59:54.226Z,2.78
2023-02-23T01:02:26.078Z,2.05
2023-02-23T01:04:55.100Z,1.92
2023-02-23T01:07:26.971Z,2.00
2023-02-23T01:09:56.020Z,2.78
2023-02-23T01:12:25.107Z,2.25
2023-02-23T01:14:54.297Z,2.80
2023-02-23T01:17:23.414Z,2.80
2023-02-23T01:19:55.302Z,2.70
2023-02-23T01:22:24.371Z,2.00
2023-02-23T01:24:53.406Z,2.35
2023-02-23T01:27:22.975Z,2.58
2023-02-23T01:29:52.091Z,3.00
2023-02-23T01:32:21.209Z,2.70
2023-02-23T01:34:50.409Z,2.15
2023-02-23T01:37:20.949Z,2.88
2023-02-23T01:39:50.173Z,2.60
2023-02-23T01:42:19.311Z,2.17
2023-02-23T01:45:21.953Z,2.50
2023-02-23T01:47:51.935Z,2.30
2023-02-23T01:50:25.394Z,2.35
2023-02-23T01:52:56.876Z,2.33
2023-02-23T01:55:29.373Z,1.83
2023-02-23T01:58:06.898Z,2.00
2023-02-23T02:00:37.828Z,2.15
2023-02-23T02:03:15.835Z,2.00
2023-02-23T02:05:46.768Z,2.08
2023-02-23T02:08:19.305Z,1.83
2023-02-23T02:10:55.914Z,2.13
2023-02-23T02:13:30.250Z,2.08
2023-02-23T02:16:21.312Z,1.85
2023-02-23T02:19:18.762Z,2.30
2023-02-23T02:22:21.084Z,2.28
2023-02-23T02:25:25.780Z,2.53
2023-02-23T02:28:23.529Z,2.45
2023-02-23T02:31:21.154Z,2.13
2023-02-23T02:34:08.502Z,2.50
2023-02-23T02:37:25.327Z,2.50
2023-02-23T02:40:15.563Z,2.30
2023-02-23T02:42:58.982Z,1.77
2023-02-23T02:45:37.502Z,1.80
2023-02-23T02:48:16.755Z,2.38
2023-02-23T02:50:50.949Z,1.92
2023-02-23T02:53:24.580Z,2.20
2023-02-23T02:55:59.840Z,2.20
2023-02-23T02:58:30.539Z,1.88
2023-02-23T03:01:26.527Z,1.83
2023-02-23T03:04:13.392Z,2.08
2023-02-23T03:07:05.663Z,2.10
2023-02-23T03:09:57.413Z,1.90
2023-02-23T03:12:57.616Z,1.85
2023-02-23T03:15:58.059Z,2.10
2023-02-23T03:19:03.749Z,1.92
2023-02-23T03:21:55.978Z,2.03
2023-02-23T03:24:51.295Z,2.05
2023-02-23T03:27:43.543Z,1.90
2023-02-23T03:30:39.007Z,2.28
2023-02-23T03:33:33.370Z,2.08
2023-02-23T03:36:26.564Z,2.97
2023-02-23T03:39:19.678Z,2.20
2023-02-23T03:42:09.702Z,2.08
2023-02-23T03:45:02.058Z,2.08
2023-02-23T03:47:55.860Z,2.40
2023-02-23T03:50:49.559Z,2.17
2023-02-23T03:53:42.428Z,2.13
2023-02-23T03:56:30.419Z,2.67
2023-02-23T03:59:19.598Z,2.13
2023-02-23T04:02:08.736Z,2.08
2023-02-23T04:04:58.465Z,2.58
2023-02-23T04:07:45.426Z,2.13
2023-02-23T04:10:32.145Z,2.17
2023-02-23T04:13:16.936Z,2.35
2023-02-23T04:15:50.755Z,1.92
2023-02-23T04:18:25.725Z,2.53
2023-02-23T04:20:56.597Z,2.20
2023-02-23T04:23:26.457Z,2.25
2023-02-23T04:25:56.637Z,2.08
2023-02-23T04:28:27.370Z,1.90
2023-02-23T04:30:56.536Z,2.03
2023-02-23T04:33:27.252Z,1.73
2023-02-23T04:35:57.638Z,2.88
2023-02-23T04:38:26.620Z,2.53
2023-02-23T04:40:55.762Z,2.15
2023-02-23T04:43:24.742Z,2.47
2023-02-23T04:45:53.749Z,2.53
2023-02-23T04:48:25.141Z,2.40
2023-02-23T04:50:54.538Z,2.25
2023-02-23T04:53:25.909Z,2.15
2023-02-23T04:55:54.920Z,2.25
2023-02-23T04:58:23.978Z,2.20
2023-02-23T05:00:53.293Z,2.10
2023-02-23T05:03:22.418Z,2.50
2023-02-23T05:05:51.413Z,2.25
2023-02-23T05:08:20.401Z,2.67
2023-02-23T05:10:50.790Z,1.88
2023-02-23T05:13:20.674Z,3.05
2023-02-23T05:15:49.716Z,2.10
2023-02-23T05:18:18.793Z,2.30
2023-02-23T05:20:47.756Z,2.03
2023-02-23T05:23:16.947Z,1.80
2023-02-23T05:25:45.951Z,2.67
2023-02-23T05:28:16.417Z,2.25
2023-02-23T05:30:45.548Z,3.15
2023-02-23T05:33:18.204Z,2.42
2023-02-23T05:35:47.540Z,3.35
2023-02-23T05:38:16.529Z,2.50
2023-02-23T05:40:45.524Z,2.55
2023-02-23T05:43:15.948Z,2.30
2023-02-23T05:45:45.502Z,2.58
2023-02-23T05:48:14.716Z,2.38
2023-02-23T05:50:43.756Z,1.90
2023-02-23T05:53:12.768Z,2.22
2023-02-23T05:55:41.846Z,2.38
2023-02-23T05:58:10.933Z,2.28
2023-02-23T06:00:41.412Z,2.83
2023-02-23T06:03:10.554Z,2.17
2023-02-23T06:05:39.608Z,2.50
2023-02-23T06:08:08.701Z,2.50
2023-02-23T06:10:37.863Z,2.53
2023-02-23T06:13:06.900Z,2.15
2023-02-23T06:15:36.041Z,2.50
2023-02-23T06:18:06.644Z,1.90
2023-02-23T06:20:36.042Z,2.00
2023-02-23T06:23:06.480Z,2.05
2023-02-23T06:25:35.875Z,2.78
2023-02-23T06:28:05.156Z,2.08
2023-02-23T06:30:34.250Z,2.00
2023-02-23T06:33:03.704Z,2.58
2023-02-23T06:35:34.844Z,2.65
2023-02-23T06:38:05.744Z,3.30
2023-02-23T06:40:36.018Z,2.63
2023-02-23T06:43:05.289Z,2.10
2023-02-23T06:45:34.696Z,2.03
2023-02-23T06:48:04.014Z,2.30
2023-02-23T06:50:34.375Z,2.42
2023-02-23T06:53:03.474Z,2.53
2023-02-23T06:55:32.724Z,2.50
2023-02-23T06:58:01.851Z,2.78
2023-02-23T07:00:30.955Z,2.58
2023-02-23T07:03:00.129Z,2.35
2023-02-23T07:05:29.690Z,2.28
2023-02-23T07:08:00.087Z,2.25
2023-02-23T07:10:29.176Z,3.00
2023-02-23T07:12:59.046Z,1.95
2023-02-23T07:15:28.021Z,2.95
2023-02-23T07:17:57.598Z,2.13
2023-02-23T07:20:26.624Z,2.65
2023-02-23T07:22:56.071Z,2.88
2023-02-23T07:25:26.464Z,2.47
2023-02-23T07:27:55.711Z,2.30
2023-02-23T07:30:25.031Z,2.20
2023-02-23T07:32:54.792Z,2.70
2023-02-23T07:35:24.971Z,2.25
2023-02-23T07:37:54.575Z,2.58
2023-02-23T07:40:25.602Z,2.67
2023-02-23T07:42:55.483Z,2.60
2023-02-23T07:45:25.176Z,2.60
2023-02-23T07:47:54.267Z,2.20
2023-02-23T07:50:23.339Z,2.70
2023-02-23T07:52:52.723Z,2.22
2023-02-23T07:55:22.505Z,2.78
2023-02-23T07:57:52.925Z,2.65
2023-02-23T08:00:22.625Z,4.25
2023-02-23T08:02:53.225Z,2.67
2023-02-23T08:05:22.363Z,2.80
2023-02-23T08:07:51.556Z,2.67
2023-02-23T08:10:20.865Z,2.90
2023-02-23T08:12:50.195Z,3.22
2023-02-23T08:15:22.316Z,2.60
2023-02-23T08:17:51.375Z,3.17
2023-02-23T08:20:20.653Z,3.08
2023-02-23T08:22:53.980Z,2.53
2023-02-23T08:25:23.053Z,3.47
2023-02-23T08:27:53.298Z,2.80
2023-02-23T08:30:26.684Z,2.97
2023-02-23T08:32:55.870Z,2.88
2023-02-23T08:35:25.002Z,2.55
2023-02-23T08:37:54.105Z,3.15
2023-02-23T08:40:23.170Z,3.97
2023-02-23T08:42:52.773Z,2.70
2023-02-23T08:45:23.535Z,3.20
2023-02-23T08:47:52.711Z,3.33
2023-02-23T08:50:21.856Z,3.40
2023-02-23T08:52:50.944Z,2.38
2023-02-23T08:55:21.831Z,3.28
2023-02-23T08:57:51.171Z,2.90
2023-02-23T09:00:21.378Z,3.00
2023-02-23T09:02:51.870Z,2.78
2023-02-23T09:05:20.968Z,4.05
2023-02-23T09:07:50.931Z,3.30
2023-02-23T09:10:24.922Z,3.00
2023-02-23T09:12:54.068Z,3.08
2023-02-23T09:15:23.613Z,3.20
2023-02-23T09:17:54.567Z,3.13
2023-02-23T09:20:26.852Z,2.92
2023-02-23T09:22:56.327Z,2.70
2023-02-23T09:25:25.570Z,3.03
2023-02-23T09:27:57.124Z,2.53
2023-02-23T09:30:26.576Z,3.65
2023-02-23T09:32:57.538Z,2.45
2023-02-23T09:35:27.104Z,3.47
2023-02-23T09:37:57.239Z,3.10
2023-02-23T09:40:29.150Z,3.33
2023-02-23T09:43:03.950Z,3.40
2023-02-23T09:45:40.524Z,2.97
2023-02-23T09:48:20.378Z,3.10
2023-02-23T09:50:52.548Z,3.55
2023-02-23T09:53:39.315Z,3.55
2023-02-23T09:56:14.774Z,3.03
2023-02-23T09:58:44.716Z,2.88
2023-02-23T10:01:47.967Z,3.30
2023-02-23T10:04:22.617Z,3.50
2023-02-23T10:06:59.997Z,3.03
2023-02-23T10:09:43.210Z,2.90
2023-02-23T10:12:19.870Z,3.33
2023-02-23T10:15:17.501Z,3.97
2023-02-23T10:17:56.571Z,3.42
2023-02-23T10:20:36.198Z,3.22
2023-02-23T10:23:08.922Z,2.88
2023-02-23T10:25:43.107Z,3.22
2023-02-23T10:28:16.650Z,3.03
2023-02-23T10:30:46.791Z,3.47
2023-02-23T10:33:20.728Z,2.85
2023-02-23T10:36:07.522Z,3.08
2023-02-23T10:41:14.853Z,3.67
2023-02-23T10:43:44.222Z,2.60
2023-02-23T10:46:22.346Z,3.53
2023-02-23T10:48:55.751Z,3.35
2023-02-23T10:51:31.267Z,4.43
2023-02-23T10:54:07.795Z,3.47
2023-02-23T10:56:45.966Z,3.45
2023-02-23T10:59:20.663Z,3.22
2023-02-23T11:02:01.410Z,3.60
2023-02-23T11:04:35.144Z,3.42
2023-02-23T11:07:11.064Z,3.05
2023-02-23T11:09:47.149Z,3.28
2023-02-23T11:12:22.101Z,3.85
2023-02-23T11:14:53.255Z,3.40
2023-02-23T11:17:32.997Z,3.08
2023-02-23T11:20:11.273Z,3.60
2023-02-23T11:22:43.176Z,3.30
2023-02-23T11:25:22.053Z,3.00
2023-02-23T11:27:53.997Z,2.83
2023-02-23T11:30:25.564Z,3.33
2023-02-23T11:32:57.648Z,2.95
2023-02-23T11:35:32.400Z,2.78
2023-02-23T11:38:17.285Z,2.72
2023-02-23T11:41:00.552Z,3.13
2023-02-23T11:43:30.355Z,2.30
2023-02-23T11:46:01.959Z,2.58
2023-02-23T11:48:35.955Z,2.65
2023-02-23T11:51:05.730Z,2.70
2023-02-23T11:53:40.229Z,2.78
2023-02-23T11:56:11.283Z,2.30
2023-02-23T11:58:43.676Z,2.10
2023-02-23T12:01:16.951Z,2.08
2023-02-23T12:03:48.840Z,2.30
2023-02-23T12:06:30.097Z,2.33
2023-02-23T12:09:06.327Z,2.72
2023-02-23T12:11:40.914Z,2.13
2023-02-23T12:14:18.268Z,2.45
2023-02-23T12:16:50.996Z,3.25
2023-02-23T12:19:29.502Z,2.75
2023-02-23T12:22:04.962Z,2.53
2023-02-23T12:24:44.802Z,4.18
2023-02-23T12:27:17.615Z,3.42
2023-02-23T12:30:08.952Z,2.95
2023-02-23T12:32:46.979Z,2.53
2023-02-23T12:35:20.881Z,2.50
2023-02-23T12:37:54.376Z,3.00
2023-02-23T12:40:29.248Z,1.75
2023-02-23T12:43:03.975Z,2.88
2023-02-23T12:45:38.436Z,7.75
2023-02-23T12:48:20.764Z,6.22
2023-02-23T12:50:54.312Z,4.22
2023-02-23T12:53:27.200Z,2.55
2023-02-23T12:56:18.790Z,1.83
2023-02-23T12:58:56.849Z,7.68
2023-02-23T13:01:29.436Z,2.90
2023-02-23T13:04:28.181Z,7.13
2023-02-23T13:07:05.265Z,11.32
2023-02-23T13:09:47.861Z,5.07
2023-02-23T13:12:29.049Z,4.60
2023-02-23T13:15:09.518Z,2.78
2023-02-23T13:17:44.461Z,2.70
2023-02-23T13:20:20.713Z,3.25
2023-02-23T13:22:55.628Z,3.90
2023-02-23T13:25:34.093Z,3.20
2023-02-23T13:28:05.410Z,3.85
2023-02-23T13:33:14.549Z,3.03
2023-02-23T13:35:43.912Z,2.60
2023-02-23T13:38:20.636Z,2.20
2023-02-23T13:40:54.888Z,1.52
2023-02-23T13:43:30.506Z,2.00
2023-02-23T13:46:17.435Z,1.80
2023-02-23T13:48:58.862Z,1.95
2023-02-23T13:51:38.620Z,1.58
2023-02-23T13:54:24.794Z,2.65
2023-02-23T13:56:57.045Z,1.80
2023-02-23T13:59:30.532Z,2.30
2023-02-23T14:02:02.382Z,2.10
2023-02-23T14:04:38.237Z,2.03
2023-02-23T14:07:18.964Z,1.73
2023-02-23T14:09:55.102Z,2.13
2023-02-23T14:12:27.664Z,1.63
2023-02-23T14:15:18.152Z,1.55
2023-02-23T14:17:57.969Z,2.00
2023-02-23T14:20:47.625Z,1.83
2023-02-23T14:23:51.482Z,1.88
2023-02-23T14:26:40.333Z,1.92
2023-02-23T14:29:28.438Z,1.98
2023-02-23T14:32:29.954Z,1.88
2023-02-23T14:37:32.875Z,1.90
2023-02-23T14:40:10.586Z,1.70
2023-02-23T14:42:40.986Z,1.50
2023-02-23T14:45:20.844Z,2.17
2023-02-23T14:47:53.036Z,1.60
2023-02-23T14:50:27.060Z,1.60
2023-02-23T14:52:57.574Z,1.98
2023-02-23T14:55:29.536Z,2.47
2023-02-23T14:57:59.383Z,2.00
2023-02-23T15:00:32.657Z,1.80
2023-02-23T15:03:05.615Z,2.03
2023-02-23T15:05:37.923Z,1.92
2023-02-23T15:08:10.721Z,1.85
2023-02-23T15:10:43.412Z,3.60
2023-02-23T15:13:18.734Z,4.28
2023-02-23T15:15:49.797Z,3.45
2023-02-23T15:18:24.626Z,2.78
2023-02-23T15:20:54.685Z,3.05
2023-02-23T15:23:23.992Z,2.15
2023-02-23T15:25:53.252Z,2.22
2023-02-23T15:28:25.439Z,2.00
2023-02-23T15:30:56.603Z,1.70
2023-02-23T15:33:30.383Z,1.80
2023-02-23T15:36:08.822Z,2.20
2023-02-23T15:38:44.535Z,2.65
2023-02-23T15:41:20.001Z,1.88
2023-02-23T15:43:49.482Z,1.92
2023-02-23T15:46:25.005Z,7.35
2023-02-23T15:49:00.852Z,2.25
2023-02-23T15:51:37.262Z,2.05
2023-02-23T15:54:14.154Z,2.30
2023-02-23T15:56:47.075Z,2.03
2023-02-23T15:59:28.727Z,1.95
2023-02-23T16:02:02.912Z,1.90
2023-02-23T16:04:36.781Z,1.60
2023-02-23T16:07:16.276Z,2.22
2023-02-23T16:09:53.835Z,1.65
2023-02-23T16:12:25.736Z,1.83
2023-02-23T16:14:58.280Z,1.92
2023-02-23T16:17:32.057Z,1.95
2023-02-23T16:20:15.992Z,2.10
2023-02-23T16:22:47.098Z,2.88
2023-02-23T16:25:19.171Z,8.13
2023-02-23T16:27:55.069Z,4.82
2023-02-23T16:30:34.707Z,6.30
2023-02-23T16:33:08.496Z,4.55
2023-02-23T16:35:45.465Z,2.08
2023-02-23T16:38:16.253Z,2.45
2023-02-23T16:40:45.262Z,2.15
2023-02-23T16:43:14.374Z,2.40
2023-02-23T16:45:44.336Z,2.08
2023-02-23T16:48:17.844Z,2.05
2023-02-23T16:50:49.084Z,2.33
2023-02-23T16:53:18.353Z,2.95
2023-02-23T16:55:51.044Z,2.55
2023-02-23T16:58:23.269Z,2.80
2023-02-23T17:00:53.675Z,2.55
2023-02-23T17:03:25.208Z,3.20
2023-02-23T17:05:56.200Z,2.90
2023-02-23T17:08:26.182Z,3.60
2023-02-23T17:10:57.418Z,3.33
2023-02-23T17:13:27.609Z,3.97
2023-02-23T17:15:57.950Z,3.25
2023-02-23T17:18:29.760Z,3.22
2023-02-23T17:21:02.541Z,2.88
2023-02-23T17:23:39.160Z,2.83
2023-02-23T17:26:08.717Z,2.83
2023-02-23T17:28:38.371Z,3.00
2023-02-23T17:31:08.500Z,3.13
2023-02-23T17:33:38.578Z,3.67
2023-02-23T17:36:12.119Z,4.72
2023-02-23T17:38:44.272Z,3.97
2023-02-23T17:41:16.545Z,3.75
2023-02-23T17:43:45.918Z,4.78
2023-02-23T17:46:15.384Z,4.45
2023-02-23T17:48:46.853Z,5.30
2023-02-23T17:51:19.606Z,5.90
2023-02-23T17:53:49.274Z,5.00
2023-02-23T17:56:20.008Z,5.78
2023-02-23T17:58:49.232Z,4.82
2023-02-23T18:01:20.023Z,5.38
2023-02-23T18:03:51.112Z,5.07
2023-02-23T18:06:21.665Z,5.30
2023-02-23T18:08:50.676Z,5.03
2023-02-23T18:11:19.928Z,6.47
2023-02-23T18:13:51.517Z,6.28
2023-02-23T18:16:22.926Z,6.35
2023-02-23T18:18:52.725Z,6.22
2023-02-23T18:21:24.299Z,6.05
2023-02-23T18:23:53.564Z,9.55
2023-02-23T18:26:24.795Z,9.88
2023-02-23T18:31:28.119Z,9.40
2023-02-23T18:33:58.267Z,6.70
2023-02-23T18:36:30.612Z,6.57
2023-02-23T18:39:00.970Z,12.05
2023-02-23T18:41:31.247Z,10.13
2023-02-23T18:44:01.341Z,8.45
2023-02-23T18:46:31.058Z,7.30
2023-02-23T18:49:00.517Z,7.05
2023-02-23T18:51:31.282Z,7.30
2023-02-23T18:54:02.364Z,5.80
2023-02-23T18:56:31.724Z,5.97
2023-02-23T18:59:01.926Z,5.45
2023-02-23T19:01:33.439Z,5.80
2023-02-23T19:04:03.770Z,6.32
2023-02-23T19:06:37.467Z,5.95
2023-02-23T19:09:12.350Z,4.95
2023-02-23T19:11:43.502Z,4.88
2023-02-23T19:14:15.978Z,5.57
2023-02-23T19:16:45.494Z,5.50
2023-02-23T19:19:15.266Z,5.82
2023-02-23T19:21:45.865Z,6.30
2023-02-23T19:24:15.152Z,6.63
2023-02-23T19:26:44.512Z,5.50
2023-02-23T19:29:15.772Z,5.55
2023-02-23T19:34:15.442Z,5.50
2023-02-23T19:36:47.109Z,6.43
2023-02-23T19:39:16.805Z,8.25
2023-02-23T19:41:47.175Z,7.80
2023-02-23T19:44:16.297Z,6.93
2023-02-23T19:46:45.275Z,7.25
2023-02-23T19:49:14.398Z,7.18
2023-02-23T19:51:45.256Z,6.95
2023-02-23T19:54:14.333Z,7.07
2023-02-23T19:56:43.809Z,6.45
2023-02-23T19:59:13.227Z,6.30
2023-02-23T20:01:43.874Z,6.80
2023-02-23T20:04:13.163Z,6.00
2023-02-23T20:06:47.050Z,6.07
2023-02-23T20:09:17.629Z,7.07
2023-02-23T20:11:46.782Z,10.03
2023-02-23T20:14:15.797Z,8.18
2023-02-23T20:16:44.892Z,7.07
2023-02-23T20:19:13.916Z,7.20
2023-02-23T20:21:43.539Z,6.90
2023-02-23T20:24:12.977Z,6.32
2023-02-23T20:26:43.525Z,6.57
2023-02-23T20:29:17.996Z,6.05
2023-02-23T20:31:50.919Z,6.20
2023-02-23T20:34:23.994Z,5.85
2023-02-23T20:36:53.952Z,6.13
2023-02-23T20:39:24.530Z,5.15
2023-02-23T20:41:55.144Z,5.30
2023-02-23T20:44:25.719Z,6.32
2023-02-23T20:46:54.797Z,6.70
2023-02-23T20:49:25.224Z,5.63
2023-02-23T20:51:54.439Z,5.83
2023-02-23T20:54:23.716Z,5.38
2023-02-23T20:56:59.044Z,5.88
2023-02-23T20:59:31.054Z,5.57
2023-02-23T21:02:02.336Z,5.30
2023-02-23T21:07:01.307Z,5.68
2023-02-23T21:09:32.923Z,5.30
2023-02-23T21:14:34.598Z,6.18
2023-02-23T21:17:05.433Z,5.70
2023-02-23T21:19:34.666Z,5.28
2023-02-23T21:22:03.748Z,4.55
2023-02-23T21:24:34.921Z,4.30
2023-02-23T21:29:34.907Z,4.97
2023-02-23T21:32:04.701Z,4.20
2023-02-23T21:34:33.766Z,4.20
2023-02-23T21:37:03.070Z,4.47
2023-02-23T21:39:32.223Z,4.20
2023-02-23T21:42:01.435Z,4.32
2023-02-23T21:44:31.924Z,4.00
2023-02-23T21:47:04.971Z,4.00
2023-02-23T21:49:34.378Z,4.95
2023-02-23T21:52:03.606Z,4.30
2023-02-23T21:54:36.648Z,4.75
2023-02-23T21:57:05.776Z,5.13
2023-02-23T21:59:37.311Z,4.43
2023-02-23T22:02:06.542Z,3.92
2023-02-23T22:04:36.949Z,3.95
2023-02-23T22:07:06.740Z,4.95
2023-02-23T22:09:36.462Z,5.32
2023-02-23T22:12:07.536Z,4.50
2023-02-23T22:14:38.143Z,4.20
2023-02-23T22:17:09.652Z,5.05
2023-02-23T22:19:38.953Z,4.40
2023-02-23T22:22:08.105Z,4.22
2023-02-23T22:24:37.193Z,4.57
2023-02-23T22:27:07.807Z,4.75
2023-02-23T22:29:38.234Z,4.22
2023-02-23T22:32:07.715Z,3.97
2023-02-23T22:34:36.926Z,3.75
2023-02-23T22:37:05.949Z,3.85
2023-02-23T22:39:35.198Z,3.50
2023-02-23T22:42:09.402Z,3.22
2023-02-23T22:44:40.192Z,3.75
2023-02-23T22:47:09.458Z,3.50
2023-02-23T22:49:38.916Z,3.83
2023-02-23T22:52:07.941Z,3.45
2023-02-23T22:54:37.352Z,3.22
2023-02-23T22:57:06.538Z,3.25
2023-02-23T22:59:35.709Z,4.13
2023-02-23T23:02:06.120Z,3.95
2023-02-23T23:04:35.499Z,3.50
2023-02-23T23:07:06.272Z,3.58
2023-02-23T23:09:38.773Z,3.42
2023-02-23T23:12:08.210Z,3.15
2023-02-23T23:14:37.266Z,3.42
2023-02-23T23:17:09.674Z,3.17
2023-02-23T23:19:39.187Z,2.97
2023-02-23T23:22:14.354Z,3.03
2023-02-23T23:24:46.275Z,3.88
2023-02-23T23:27:16.031Z,3.80
2023-02-23T23:29:46.838Z,3.33
2023-02-23T23:32:18.835Z,3.25
2023-02-23T23:34:49.309Z,2.72
2023-02-23T23:37:20.182Z,3.20
2023-02-23T23:39:59.149Z,3.75
2023-02-23T23:42:28.325Z,4.00
2023-02-23T23:44:57.584Z,4.15
2023-02-23T23:47:30.486Z,3.67
2023-02-23T23:50:00.038Z,3.30
2023-02-23T23:52:30.083Z,3.40
2023-02-23T23:54:59.168Z,4.38
2023-02-23T23:57:28.249Z,4.00
2023-02-23T23:59:57.376Z,3.92
